Fairfield, PA (17320)

3:29 PM EDT on September 02, 2015 (GMT -0400)
Liberty Mountain Resort Summit | | Change Station
CLOSE
Current Station
Personal Weather Station
Location: Fairfield, PA
Elevation: 771 ft
Nearby Weather Stations

Elev 771 ft 39.76 °N, 77.37 °W | Updated 21 seconds ago

Clear
Clear
84.0 °F
Feels Like 89 °F
N
0.0
Wind Variable Wind from West
Gusts 11.0 mph

Today
High -- | Low -- °F
--% Chance of Precip.
Yesterday
High -- | Low -- °F
Precip. -- in
6:38 AM 7:39 PM
Waning Gibbous, 78% visible
Pressure 29.94 in
Visibility 9.0 miles
Clouds Clear
Heat Index 89 °F
Dew Point 71 °F
Humidity 65%
Rainfall 0.00 in
Snow Depth Not available.
UV 8 out of 12
Pollen 9.90 out of 12
Air Quality Not available.
Flu Activity Not available.
METAR KRYT 021853Z AUTO 00000KT 9SM CLR 31/17 A2998 RMK AO2 SLP139 T03110172 $
Pressure 29.94 in
Visibility 9.0 miles
Clouds Clear
Heat Index 89 °F
Dew Point 71 °F
Humidity 65%
Rainfall 0.00 in
Snow Depth Not available.
UV 8 out of 12
Pollen 9.90 out of 12
Air Quality Not available.
Flu Activity Not available.
METAR KRYT 021853Z AUTO 00000KT 9SM CLR 31/17 A2998 RMK AO2 SLP139 T03110172 $

10-Day Weather Forecast

×

Almanac

Astronomy

Sep. 02, 2015 Rise Set
Actual Time
Civil Twilight
Nautical Twilight
Astronomical Twilight
Moon
Length of Visible Light
Length of Day
Tomorrow will be .
, % of the Moon is Illuminated

Today's Extremes

State Highs State Lows

Community

WunderPhotos

Upload Photos

1,851,799 photos uploaded!

WunderBlogs® & News

Nearby

Air Quality

  Air Quality AQ Index Pollutant
Not available.

Snow Depth

Station Depth Elevation

Earthquake Activity

City Distance Mag. Time & Date
Minimum magnitude displayed is 2.5.

Coastal Water Temperatures

Place Temperature

Stations

Nearby Weather Stations

Station Location Temp. Windchill Dew Point Humidity Wind Precip. Elev Updated Type